Hauptseite
METAR-TAF:

METAR-TAF

Flughäfen :

Flughafen Braunschweig-Wolfsburg

Braunschweig, Deutschland

Breite: 52-18N, Länge: 010-27E, Höhe: 81 m

Beobachtung

Neuester Wetterbericht von vor 23 Minuten, um 13:20 UTC
Wind 9 kt aus West/Nordwest, variierte zwischen West und Nord/Nordwest
Temperatur 30°C
Luftfeuchtigkeit 29%
Luftdruck 1012 hPa
Sichtweite 10 km oder mehr
keine Wolken unter 1500 m und keine Kumulonimbus oder Gewitterwolken

METAR: EDVE 171320Z 30009KT 260V340 CAVOK 30/10 Q1012

Zeit: 15:43 (13:43 UTC)

Prognose

Neuester Wetterbericht von vor 2 Stunden und 43 Minuten, um 11:00 UTC
Gültige Prognose vom 17 um 12 UTC bis 17 um 21 UTC
Wind 7 kt aus Nordwest
Sichtweite 10 km oder mehr
keine Wolken unter 1500 m und keine Kumulonimbus oder Gewitterwolken

TAF: EDVE 171100Z 1712/1721 32007KT CAVOK

Wetterbeobachtungen und Prognosen von mehr als 4000 Flughäfen (METAR und TAF Bericht).

Die verfügbaren Stationen werden durch gelbe und rote Markierungen auf der Karte dargestellt.

Führen Sie die Maus auf sie, um den Namen der Station zu sehen.

Darauf klicken, um die Beobachtung von Wetterbeobachtungen und Prognosen zu sehen.

Um die Karte zu ändern : klicken Sie auf den grünen Tasten mit einem schwarzen Kreuz Zum Vergrößern, auf den grünen Button mit einem Gedankenstrich zu verkleinern, oder auf die grünen Pfeile für benachbarte Karten.


METAR-TAF: